createdAt,value
2023-02-19T00:01:35.432Z,99789.00
2023-02-19T00:04:13.675Z,99784.00
2023-02-19T00:06:41.317Z,99778.00
2023-02-19T00:09:10.755Z,99778.00
2023-02-19T00:11:38.492Z,99795.00
2023-02-19T00:14:06.607Z,99794.00
2023-02-19T00:16:39.709Z,99790.00
2023-02-19T00:19:13.188Z,99787.00
2023-02-19T00:21:40.137Z,99789.00
2023-02-19T00:24:10.788Z,99794.00
2023-02-19T00:26:40.878Z,99788.00
2023-02-19T00:29:07.946Z,99786.00
2023-02-19T00:31:36.198Z,99778.00
2023-02-19T00:34:06.083Z,99780.00
2023-02-19T00:36:37.714Z,99792.00
2023-02-19T00:39:06.904Z,99789.00
2023-02-19T00:41:34.914Z,99787.00
2023-02-19T00:44:07.766Z,99795.00
2023-02-19T00:46:40.053Z,99800.00
2023-02-19T00:49:13.162Z,99802.00
2023-02-19T00:51:40.168Z,99796.00
2023-02-19T00:54:07.140Z,99789.00
2023-02-19T00:56:34.360Z,99794.00
2023-02-19T00:59:01.180Z,99796.00
2023-02-19T01:01:28.067Z,99778.00
2023-02-19T01:04:01.723Z,99788.00
2023-02-19T01:06:31.056Z,99788.00
2023-02-19T01:08:58.597Z,99778.00
2023-02-19T01:11:25.618Z,99770.00
2023-02-19T01:13:52.492Z,99771.00
2023-02-19T01:16:25.124Z,99766.00
2023-02-19T01:18:52.440Z,99773.00
2023-02-19T01:21:26.319Z,99777.00
2023-02-19T01:23:54.418Z,99785.00
2023-02-19T01:26:26.758Z,99787.00
2023-02-19T01:28:53.739Z,99779.00
2023-02-19T01:31:24.675Z,99783.00
2023-02-19T01:33:56.075Z,99783.00
2023-02-19T01:36:24.094Z,99777.00
2023-02-19T01:38:51.262Z,99777.00
2023-02-19T01:41:23.107Z,99774.00
2023-02-19T01:44:11.321Z,99784.00
2023-02-19T01:46:41.191Z,99787.00
2023-02-19T01:49:18.646Z,99788.00
2023-02-19T01:51:57.741Z,99785.00
2023-02-19T01:54:32.369Z,99781.00
2023-02-19T01:57:02.830Z,99779.00
2023-02-19T01:59:31.844Z,99776.00
2023-02-19T02:02:00.495Z,99771.00
2023-02-19T02:04:31.312Z,99770.00
2023-02-19T02:07:02.339Z,99766.00
2023-02-19T02:09:50.027Z,99777.00
2023-02-19T02:12:16.864Z,99788.00
2023-02-19T02:14:47.640Z,99775.00
2023-02-19T02:17:37.302Z,99774.00
2023-02-19T02:20:43.936Z,99788.00
2023-02-19T02:23:34.953Z,99786.00
2023-02-19T02:26:42.447Z,99786.00
2023-02-19T02:29:48.406Z,99788.00
2023-02-19T02:33:01.492Z,99787.00
2023-02-19T02:35:48.087Z,99779.00
2023-02-19T02:38:18.510Z,99768.00
2023-02-19T02:40:46.867Z,99776.00
2023-02-19T02:43:14.411Z,99757.00
2023-02-19T02:45:42.113Z,99743.00
2023-02-19T02:48:31.286Z,99723.00
2023-02-19T02:51:17.582Z,99719.00
2023-02-19T02:54:29.468Z,99720.00
2023-02-19T02:56:58.510Z,99728.00
2023-02-19T02:59:32.173Z,99728.00
2023-02-19T03:02:23.227Z,99732.00
2023-02-19T03:05:17.961Z,99736.00
2023-02-19T03:08:12.261Z,99729.00
2023-02-19T03:10:47.575Z,99746.00
2023-02-19T03:13:43.917Z,99746.00
2023-02-19T03:16:43.449Z,99738.00
2023-02-19T03:19:20.458Z,99733.00
2023-02-19T03:22:03.072Z,99744.00
2023-02-19T03:24:59.537Z,99739.00
2023-02-19T03:27:32.433Z,99748.00
2023-02-19T03:30:05.056Z,99754.00
2023-02-19T03:32:43.956Z,99745.00
2023-02-19T03:35:19.110Z,99742.00
2023-02-19T03:38:19.664Z,99746.00
2023-02-19T03:41:11.146Z,99754.00
2023-02-19T03:43:50.236Z,99749.00
2023-02-19T03:46:47.256Z,99745.00
2023-02-19T03:49:49.896Z,99746.00
2023-02-19T03:53:06.790Z,99754.00
2023-02-19T03:56:10.885Z,99758.00
2023-02-19T03:58:50.086Z,99751.00
2023-02-19T04:01:27.632Z,99766.00
2023-02-19T04:04:04.232Z,99764.00
2023-02-19T04:06:35.249Z,99756.00
2023-02-19T04:09:07.557Z,99764.00
2023-02-19T04:11:35.343Z,99756.00
2023-02-19T04:14:10.848Z,99769.00
2023-02-19T04:16:44.191Z,99765.00
2023-02-19T04:19:18.419Z,99765.00
2023-02-19T04:21:50.153Z,99755.00
2023-02-19T04:24:32.101Z,99773.00
2023-02-19T04:26:59.813Z,99778.00
2023-02-19T04:29:26.646Z,99785.00
2023-02-19T04:31:53.656Z,99790.00
2023-02-19T04:34:20.544Z,99795.00
2023-02-19T04:36:47.452Z,99811.00
2023-02-19T04:39:14.389Z,99807.00
2023-02-19T04:41:41.281Z,99808.00
2023-02-19T04:44:08.236Z,99810.00
2023-02-19T04:46:35.077Z,99818.00
2023-02-19T04:49:02.008Z,99817.00
2023-02-19T04:51:28.914Z,99819.00
2023-02-19T04:53:56.398Z,99831.00
2023-02-19T04:56:23.480Z,99830.00
2023-02-19T04:58:50.537Z,99838.00
2023-02-19T05:01:17.632Z,99851.00
2023-02-19T05:03:44.440Z,99844.00
2023-02-19T05:06:13.535Z,99851.00
2023-02-19T05:08:41.204Z,99857.00
2023-02-19T05:11:10.845Z,99871.00
2023-02-19T05:13:39.541Z,99873.00
2023-02-19T05:16:19.124Z,99878.00
2023-02-19T05:18:47.177Z,99876.00
2023-02-19T05:21:15.382Z,99882.00
2023-02-19T05:23:43.746Z,99876.00
2023-02-19T05:26:17.846Z,99883.00
2023-02-19T05:28:46.937Z,99888.00
2023-02-19T05:31:14.684Z,99882.00
2023-02-19T05:33:43.144Z,99896.00
2023-02-19T05:36:13.954Z,99896.00
2023-02-19T05:38:41.794Z,99905.00
2023-02-19T05:41:18.976Z,99894.00
2023-02-19T05:43:48.705Z,99888.00
2023-02-19T05:46:20.759Z,99899.00
2023-02-19T05:48:49.490Z,99905.00
2023-02-19T05:51:19.758Z,99898.00
2023-02-19T05:53:47.800Z,99906.00
2023-02-19T05:56:30.008Z,99908.00
2023-02-19T05:58:57.795Z,99901.00
2023-02-19T06:01:28.629Z,99908.00
2023-02-19T06:03:57.648Z,99905.00
2023-02-19T06:06:26.909Z,99910.00
2023-02-19T06:08:54.433Z,99912.00
2023-02-19T06:11:21.756Z,99915.00
2023-02-19T06:13:50.275Z,99927.00
2023-02-19T06:16:17.998Z,99926.00
2023-02-19T06:18:45.906Z,99918.00
2023-02-19T06:21:14.044Z,99929.00
2023-02-19T06:23:41.204Z,99931.00
2023-02-19T06:26:16.287Z,99938.00
2023-02-19T06:28:43.830Z,99932.00
2023-02-19T06:31:12.394Z,99931.00
2023-02-19T06:33:41.371Z,99937.00
2023-02-19T06:36:16.812Z,99942.00
2023-02-19T06:38:44.391Z,99938.00
2023-02-19T06:41:12.349Z,99946.00
2023-02-19T06:43:39.883Z,99955.00
2023-02-19T06:46:08.512Z,99959.00
2023-02-19T06:48:35.997Z,99964.00
2023-02-19T06:51:03.057Z,99960.00
2023-02-19T06:53:30.190Z,99958.00
2023-02-19T06:56:03.371Z,99951.00
2023-02-19T06:58:31.450Z,99964.00
2023-02-19T07:00:58.456Z,99965.00
2023-02-19T07:03:26.627Z,99970.00
2023-02-19T07:05:53.900Z,99974.00
2023-02-19T07:08:21.370Z,99972.00
2023-02-19T07:10:57.047Z,99964.00
2023-02-19T07:13:27.821Z,99967.00
2023-02-19T07:16:08.131Z,99968.00
2023-02-19T07:18:35.398Z,99967.00
2023-02-19T07:21:09.539Z,99982.00
2023-02-19T07:23:37.012Z,99985.00
2023-02-19T07:26:04.244Z,99985.00
2023-02-19T07:28:31.126Z,99984.00
2023-02-19T07:31:04.983Z,99991.00
2023-02-19T07:33:31.985Z,99996.00
2023-02-19T07:35:58.899Z,99987.00
2023-02-19T07:38:27.586Z,99981.00
2023-02-19T07:40:59.639Z,99989.00
2023-02-19T07:43:29.773Z,99991.00
2023-02-19T07:45:56.918Z,99995.00
2023-02-19T07:48:24.283Z,99997.00
2023-02-19T07:50:57.571Z,99996.00
2023-02-19T07:53:26.094Z,99998.00
2023-02-19T07:55:53.153Z,100004.00
2023-02-19T07:58:20.023Z,100011.00
2023-02-19T08:00:46.847Z,100010.00
2023-02-19T08:03:13.669Z,100016.00
2023-02-19T08:05:42.847Z,100007.00
2023-02-19T08:08:14.098Z,100006.00
2023-02-19T08:10:59.715Z,99995.00
2023-02-19T08:13:30.071Z,99999.00
2023-02-19T08:16:20.185Z,100011.00
2023-02-19T08:18:51.320Z,100019.00
2023-02-19T08:21:18.378Z,100026.00
2023-02-19T08:23:46.411Z,100018.00
2023-02-19T08:26:13.784Z,100024.00
2023-02-19T08:28:41.552Z,100021.00
2023-02-19T08:31:11.542Z,100029.00
2023-02-19T08:33:38.921Z,100023.00
2023-02-19T08:36:09.243Z,100023.00
2023-02-19T08:38:37.753Z,100027.00
2023-02-19T08:41:11.390Z,100038.00
2023-02-19T08:43:39.707Z,100035.00
2023-02-19T08:46:09.957Z,100046.00
2023-02-19T08:48:44.020Z,100038.00
2023-02-19T08:51:12.556Z,100038.00
2023-02-19T08:53:41.331Z,100055.00
2023-02-19T08:56:17.739Z,100057.00
2023-02-19T08:58:46.221Z,100046.00
2023-02-19T09:01:17.741Z,100056.00
2023-02-19T09:03:45.838Z,100059.00
2023-02-19T09:06:19.192Z,100060.00
2023-02-19T09:08:46.306Z,100060.00
2023-02-19T09:11:13.635Z,100063.00
2023-02-19T09:13:40.748Z,100056.00
2023-02-19T09:16:07.937Z,100053.00
2023-02-19T09:18:35.720Z,100066.00
2023-02-19T09:21:05.319Z,100057.00
2023-02-19T09:23:37.188Z,100064.00
2023-02-19T09:26:08.627Z,100058.00
2023-02-19T09:28:36.256Z,100054.00
2023-02-19T09:31:08.153Z,100055.00
2023-02-19T09:33:35.427Z,100052.00
2023-02-19T09:36:02.918Z,100044.00
2023-02-19T09:38:30.901Z,100041.00
2023-02-19T09:41:00.022Z,100042.00
2023-02-19T09:43:29.838Z,100039.00
2023-02-19T09:46:23.542Z,100038.00
2023-02-19T09:48:52.889Z,100041.00
2023-02-19T09:51:20.730Z,100053.00
2023-02-19T09:53:51.909Z,100057.00
2023-02-19T09:56:18.976Z,100060.00
2023-02-19T09:58:59.279Z,100058.00
2023-02-19T10:01:34.468Z,100067.00
2023-02-19T10:04:01.429Z,100070.00
2023-02-19T10:06:29.851Z,100067.00
2023-02-19T10:09:17.689Z,100081.00
2023-02-19T10:11:45.327Z,100079.00
2023-02-19T10:14:33.880Z,100086.00
2023-02-19T10:17:05.044Z,100087.00
2023-02-19T10:19:34.415Z,100101.00
2023-02-19T10:22:03.952Z,100094.00
2023-02-19T10:24:31.944Z,100103.00
2023-02-19T10:26:58.827Z,100088.00
2023-02-19T10:29:27.211Z,100095.00
2023-02-19T10:32:23.784Z,100108.00
2023-02-19T10:35:15.916Z,100110.00
2023-02-19T10:37:49.757Z,100113.00
2023-02-19T10:40:20.939Z,100117.00
2023-02-19T10:43:00.978Z,100116.00
2023-02-19T10:45:53.126Z,100122.00
2023-02-19T10:48:30.598Z,100103.00
2023-02-19T10:51:05.266Z,100103.00
2023-02-19T10:54:04.902Z,100114.00
2023-02-19T10:56:33.642Z,100110.00
2023-02-19T10:59:18.949Z,100106.00
2023-02-19T11:02:19.812Z,100107.00
2023-02-19T11:05:14.795Z,100110.00
2023-02-19T11:07:57.086Z,100104.00
2023-02-19T11:10:27.339Z,100110.00
2023-02-19T11:13:02.360Z,100113.00
2023-02-19T11:15:38.348Z,100122.00
2023-02-19T11:18:32.812Z,100119.00
2023-02-19T11:21:06.732Z,100106.00
2023-02-19T11:23:44.960Z,100121.00
2023-02-19T11:26:24.443Z,100112.00
2023-02-19T11:29:12.997Z,100108.00
2023-02-19T11:31:40.142Z,100101.00
2023-02-19T11:34:21.234Z,100107.00
2023-02-19T11:37:18.478Z,100095.00
2023-02-19T11:39:52.066Z,100106.00
2023-02-19T11:42:56.212Z,100099.00
2023-02-19T11:45:59.026Z,100103.00
2023-02-19T11:48:48.691Z,100105.00
2023-02-19T11:51:33.552Z,100106.00
2023-02-19T11:54:17.507Z,100122.00
2023-02-19T11:56:50.530Z,100115.00
2023-02-19T11:59:41.373Z,100111.00
2023-02-19T12:02:25.339Z,100109.00
2023-02-19T12:05:09.954Z,100112.00
2023-02-19T12:08:10.332Z,100104.00
2023-02-19T12:11:12.405Z,100112.00
2023-02-19T12:14:12.366Z,100104.00
2023-02-19T12:17:14.462Z,100113.00
2023-02-19T12:20:10.398Z,100104.00
2023-02-19T12:32:15.161Z,100087.00
2023-02-19T12:43:19.613Z,100085.00
2023-02-19T12:46:01.489Z,100078.00
2023-02-19T12:48:47.449Z,100080.00
2023-02-19T12:51:27.822Z,100080.00
2023-02-19T12:53:59.994Z,100085.00
2023-02-19T12:56:39.113Z,100087.00
2023-02-19T12:59:18.577Z,100082.00
2023-02-19T13:02:20.812Z,100066.00
2023-02-19T13:05:17.964Z,100062.00
2023-02-19T13:08:07.827Z,100063.00
2023-02-19T13:10:44.147Z,100077.00
2023-02-19T13:13:23.875Z,100083.00
2023-02-19T13:16:18.765Z,100068.00
2023-02-19T13:18:53.981Z,100069.00
2023-02-19T13:21:44.182Z,100074.00
2023-02-19T13:24:23.976Z,100080.00
2023-02-19T13:27:20.230Z,100084.00
2023-02-19T13:30:33.668Z,100076.00
2023-02-19T13:33:37.230Z,100075.00
2023-02-19T13:36:12.189Z,100064.00
2023-02-19T13:38:46.543Z,100067.00
2023-02-19T13:41:30.896Z,100074.00
2023-02-19T13:44:05.952Z,100069.00
2023-02-19T13:46:41.850Z,100067.00
2023-02-19T13:49:29.802Z,100081.00
2023-02-19T13:52:29.134Z,100083.00
2023-02-19T13:55:42.839Z,100065.00
2023-02-19T13:58:39.769Z,100073.00
2023-02-19T14:01:12.636Z,100075.00
2023-02-19T14:03:56.767Z,100076.00
2023-02-19T14:06:28.765Z,100075.00
2023-02-19T14:09:06.513Z,100087.00
2023-02-19T14:11:42.543Z,100080.00
2023-02-19T14:14:27.862Z,100067.00
2023-02-19T14:17:49.914Z,100066.00
2023-02-19T14:20:16.740Z,100064.00
2023-02-19T14:23:03.637Z,100062.00
2023-02-19T14:25:55.207Z,100075.00
2023-02-19T14:28:35.556Z,100062.00
2023-02-19T14:31:34.396Z,100064.00
2023-02-19T14:34:27.121Z,100069.00
2023-02-19T14:37:01.461Z,100065.00
2023-02-19T14:39:38.117Z,100068.00
2023-02-19T14:42:23.746Z,100077.00
2023-02-19T14:44:58.813Z,100082.00
2023-02-19T14:47:35.020Z,100079.00
2023-02-19T14:50:17.690Z,100086.00
2023-02-19T14:52:53.312Z,100076.00
2023-02-19T14:55:34.103Z,100078.00
2023-02-19T14:58:25.823Z,100076.00
2023-02-19T15:00:53.130Z,100069.00
2023-02-19T15:03:35.835Z,100064.00
2023-02-19T15:06:20.936Z,100054.00
2023-02-19T15:09:01.735Z,100058.00
2023-02-19T15:11:53.770Z,100064.00
2023-02-19T15:14:34.454Z,100082.00
2023-02-19T15:17:09.158Z,100075.00
2023-02-19T15:19:44.795Z,100079.00
2023-02-19T15:22:38.570Z,100078.00
2023-02-19T15:25:36.001Z,100078.00
2023-02-19T15:28:28.217Z,100080.00
2023-02-19T15:31:11.404Z,100070.00
2023-02-19T15:33:58.100Z,100084.00
2023-02-19T15:36:34.515Z,100090.00
2023-02-19T15:42:12.395Z,100094.00
2023-02-19T15:44:54.921Z,100088.00
2023-02-19T15:47:54.218Z,100097.00
2023-02-19T15:51:30.450Z,100119.00
2023-02-19T15:57:30.238Z,100118.00
2023-02-19T16:00:52.392Z,100121.00
2023-02-19T16:03:42.860Z,100129.00
2023-02-19T16:09:52.110Z,100131.00
2023-02-19T16:12:24.856Z,100136.00
2023-02-19T16:14:51.849Z,100139.00
2023-02-19T16:17:23.263Z,100143.00
2023-02-19T16:19:59.096Z,100149.00
2023-02-19T16:22:30.088Z,100148.00
2023-02-19T16:25:05.475Z,100143.00
2023-02-19T16:27:46.644Z,100152.00
2023-02-19T16:30:22.673Z,100150.00
2023-02-19T16:33:33.637Z,100154.00
2023-02-19T16:36:40.477Z,100163.00
2023-02-19T16:39:23.229Z,100171.00
2023-02-19T16:42:13.435Z,100164.00
2023-02-19T16:44:40.649Z,100164.00
2023-02-19T16:47:19.450Z,100155.00
2023-02-19T16:49:46.446Z,100154.00
2023-02-19T16:52:16.889Z,100154.00
2023-02-19T16:54:43.798Z,100156.00
2023-02-19T16:57:13.912Z,100141.00
2023-02-19T16:59:41.506Z,100130.00
2023-02-19T17:02:37.537Z,100133.00
2023-02-19T17:05:04.798Z,100147.00
2023-02-19T17:07:41.882Z,100137.00
2023-02-19T17:10:38.374Z,100140.00
2023-02-19T17:13:05.171Z,100144.00
2023-02-19T17:15:31.963Z,100154.00
2023-02-19T17:17:59.025Z,100152.00
2023-02-19T17:20:30.629Z,100156.00
2023-02-19T17:22:59.317Z,100157.00
2023-02-19T17:25:26.883Z,100162.00
2023-02-19T17:31:09.631Z,100164.00
2023-02-19T17:34:00.286Z,100164.00
2023-02-19T17:37:02.049Z,100169.00
2023-02-19T17:41:05.219Z,100168.00
2023-02-19T18:32:05.829Z,100188.00
2023-02-19T18:58:45.148Z,100221.00
2023-02-19T20:55:53.164Z,100308.00
2023-02-19T21:11:12.284Z,100282.00
2023-02-19T21:30:44.864Z,100325.00
2023-02-19T22:03:50.066Z,100298.00
2023-02-19T22:29:34.245Z,100296.00
2023-02-19T23:01:05.673Z,100343.00
2023-02-19T23:05:16.965Z,100342.00
2023-02-19T23:32:20.157Z,100357.00
